sensor_id;sensor_type;location;lat;lon;timestamp;P1;durP1;ratioP1;P2;durP2;ratioP2
13353;SDS011;6746;50.892;4.064;2022-08-11T00:03:20;4.62;;;2.00;;
13353;SDS011;6746;50.892;4.064;2022-08-11T00:14:23;2.65;;;1.70;;
13353;SDS011;6746;50.892;4.064;2022-08-11T00:16:58;2.60;;;2.00;;
13353;SDS011;6746;50.892;4.064;2022-08-11T00:30:13;3.22;;;2.03;;
13353;SDS011;6746;50.892;4.064;2022-08-11T00:38:17;5.80;;;2.20;;
13353;SDS011;6746;50.892;4.064;2022-08-11T00:47:34;2.62;;;1.98;;
13353;SDS011;6746;50.892;4.064;2022-08-11T00:53:30;3.67;;;1.95;;
13353;SDS011;6746;50.892;4.064;2022-08-11T01:05:55;4.50;;;2.15;;
13353;SDS011;6746;50.892;4.064;2022-08-11T01:08:52;3.28;;;2.15;;
13353;SDS011;6746;50.892;4.064;2022-08-11T01:11:28;2.07;;;1.90;;
13353;SDS011;6746;50.892;4.064;2022-08-11T01:14:45;3.12;;;2.00;;
13353;SDS011;6746;50.892;4.064;2022-08-11T01:46:31;2.30;;;2.10;;
13353;SDS011;6746;50.892;4.064;2022-08-11T02:01:26;2.53;;;2.33;;
13353;SDS011;6746;50.892;4.064;2022-08-11T02:04:34;4.10;;;2.20;;
13353;SDS011;6746;50.892;4.064;2022-08-11T02:07:38;2.75;;;2.10;;
13353;SDS011;6746;50.892;4.064;2022-08-11T02:11:00;2.28;;;2.15;;
13353;SDS011;6746;50.892;4.064;2022-08-11T02:17:14;3.62;;;2.65;;
13353;SDS011;6746;50.892;4.064;2022-08-11T02:20:03;9.75;;;2.95;;
13353;SDS011;6746;50.892;4.064;2022-08-11T02:23:00;4.22;;;2.40;;
13353;SDS011;6746;50.892;4.064;2022-08-11T02:29:14;2.70;;;2.50;;
13353;SDS011;6746;50.892;4.064;2022-08-11T02:32:11;3.80;;;2.40;;
13353;SDS011;6746;50.892;4.064;2022-08-11T02:35:17;4.40;;;2.80;;
13353;SDS011;6746;50.892;4.064;2022-08-11T02:38:28;7.50;;;3.05;;
13353;SDS011;6746;50.892;4.064;2022-08-11T02:41:15;3.62;;;2.92;;
13353;SDS011;6746;50.892;4.064;2022-08-11T02:44:30;4.05;;;2.40;;
13353;SDS011;6746;50.892;4.064;2022-08-11T02:47:38;3.92;;;2.60;;
13353;SDS011;6746;50.892;4.064;2022-08-11T02:51:07;3.55;;;3.05;;
13353;SDS011;6746;50.892;4.064;2022-08-11T02:54:13;7.60;;;2.85;;
13353;SDS011;6746;50.892;4.064;2022-08-11T02:57:03;6.10;;;3.22;;
13353;SDS011;6746;50.892;4.064;2022-08-11T03:00:08;4.45;;;2.70;;
13353;SDS011;6746;50.892;4.064;2022-08-11T03:08:49;4.93;;;2.83;;
13353;SDS011;6746;50.892;4.064;2022-08-11T03:14:34;4.55;;;2.92;;
13353;SDS011;6746;50.892;4.064;2022-08-11T03:20:41;5.45;;;3.03;;
13353;SDS011;6746;50.892;4.064;2022-08-11T03:29:00;4.15;;;2.97;;
13353;SDS011;6746;50.892;4.064;2022-08-11T03:31:51;3.85;;;2.85;;
13353;SDS011;6746;50.892;4.064;2022-08-11T03:42:49;7.07;;;3.15;;
13353;SDS011;6746;50.892;4.064;2022-08-11T04:13:08;3.40;;;3.20;;
13353;SDS011;6746;50.892;4.064;2022-08-11T04:22:50;4.12;;;3.60;;
13353;SDS011;6746;50.892;4.064;2022-08-11T04:25:53;3.60;;;3.30;;
13353;SDS011;6746;50.892;4.064;2022-08-11T04:31:33;5.75;;;4.45;;
13353;SDS011;6746;50.892;4.064;2022-08-11T04:49:57;4.47;;;3.85;;
13353;SDS011;6746;50.892;4.064;2022-08-11T04:53:02;5.03;;;4.53;;
13353;SDS011;6746;50.892;4.064;2022-08-11T04:56:08;5.65;;;4.22;;
13353;SDS011;6746;50.892;4.064;2022-08-11T05:02:50;5.28;;;4.07;;
13353;SDS011;6746;50.892;4.064;2022-08-11T05:11:58;8.25;;;4.43;;
13353;SDS011;6746;50.892;4.064;2022-08-11T05:14:48;4.50;;;3.97;;
13353;SDS011;6746;50.892;4.064;2022-08-11T05:17:56;6.22;;;4.22;;
13353;SDS011;6746;50.892;4.064;2022-08-11T05:21:10;7.62;;;4.70;;
13353;SDS011;6746;50.892;4.064;2022-08-11T05:24:13;6.15;;;4.15;;
13353;SDS011;6746;50.892;4.064;2022-08-11T05:27:07;6.80;;;4.60;;
13353;SDS011;6746;50.892;4.064;2022-08-11T05:33:04;5.22;;;4.70;;
13353;SDS011;6746;50.892;4.064;2022-08-11T05:36:54;8.02;;;4.50;;
13353;SDS011;6746;50.892;4.064;2022-08-11T05:38:49;8.35;;;4.90;;
13353;SDS011;6746;50.892;4.064;2022-08-11T05:41:46;5.12;;;3.90;;
13353;SDS011;6746;50.892;4.064;2022-08-11T05:44:43;8.27;;;4.75;;
13353;SDS011;6746;50.892;4.064;2022-08-11T05:47:39;4.78;;;3.58;;
13353;SDS011;6746;50.892;4.064;2022-08-11T05:50:35;5.15;;;4.28;;
13353;SDS011;6746;50.892;4.064;2022-08-11T05:53:21;6.32;;;4.25;;
13353;SDS011;6746;50.892;4.064;2022-08-11T05:56:17;4.73;;;4.27;;
13353;SDS011;6746;50.892;4.064;2022-08-11T06:01:21;7.18;;;4.30;;
13353;SDS011;6746;50.892;4.064;2022-08-11T06:07:02;4.05;;;3.65;;
13353;SDS011;6746;50.892;4.064;2022-08-11T06:09:46;6.30;;;3.92;;
13353;SDS011;6746;50.892;4.064;2022-08-11T06:12:08;4.15;;;3.75;;
13353;SDS011;6746;50.892;4.064;2022-08-11T06:20:01;7.80;;;3.45;;
13353;SDS011;6746;50.892;4.064;2022-08-11T06:24:59;5.30;;;3.53;;
13353;SDS011;6746;50.892;4.064;2022-08-11T06:27:29;5.62;;;4.03;;
13353;SDS011;6746;50.892;4.064;2022-08-11T06:29:58;6.60;;;3.75;;
13353;SDS011;6746;50.892;4.064;2022-08-11T06:32:33;4.43;;;3.80;;
13353;SDS011;6746;50.892;4.064;2022-08-11T06:40:30;6.37;;;3.80;;
13353;SDS011;6746;50.892;4.064;2022-08-11T06:43:42;9.85;;;3.40;;
13353;SDS011;6746;50.892;4.064;2022-08-11T06:45:29;6.55;;;3.60;;
13353;SDS011;6746;50.892;4.064;2022-08-11T06:53:47;6.43;;;3.83;;
13353;SDS011;6746;50.892;4.064;2022-08-11T06:59:11;8.63;;;3.20;;
13353;SDS011;6746;50.892;4.064;2022-08-11T07:11:00;5.25;;;3.35;;
13353;SDS011;6746;50.892;4.064;2022-08-11T07:13:36;11.95;;;3.15;;
13353;SDS011;6746;50.892;4.064;2022-08-11T07:16:27;6.93;;;3.20;;
13353;SDS011;6746;50.892;4.064;2022-08-11T07:19:05;3.80;;;3.15;;
13353;SDS011;6746;50.892;4.064;2022-08-11T07:21:54;7.32;;;3.25;;
13353;SDS011;6746;50.892;4.064;2022-08-11T07:24:49;4.87;;;3.45;;
13353;SDS011;6746;50.892;4.064;2022-08-11T07:27:44;3.60;;;3.27;;
13353;SDS011;6746;50.892;4.064;2022-08-11T07:30:39;5.50;;;2.80;;
13353;SDS011;6746;50.892;4.064;2022-08-11T07:38:26;4.60;;;3.03;;
13353;SDS011;6746;50.892;4.064;2022-08-11T07:43:23;5.95;;;2.92;;
13353;SDS011;6746;50.892;4.064;2022-08-11T07:46:02;3.12;;;2.50;;
13353;SDS011;6746;50.892;4.064;2022-08-11T07:48:58;4.40;;;2.55;;
13353;SDS011;6746;50.892;4.064;2022-08-11T07:51:54;5.45;;;2.75;;
13353;SDS011;6746;50.892;4.064;2022-08-11T07:54:50;3.55;;;2.60;;
13353;SDS011;6746;50.892;4.064;2022-08-11T08:00:24;6.03;;;2.78;;
13353;SDS011;6746;50.892;4.064;2022-08-11T08:03:20;8.15;;;3.08;;
13353;SDS011;6746;50.892;4.064;2022-08-11T08:06:17;4.53;;;2.83;;
13353;SDS011;6746;50.892;4.064;2022-08-11T08:09:23;5.05;;;2.60;;
13353;SDS011;6746;50.892;4.064;2022-08-11T08:12:29;7.80;;;2.40;;
13353;SDS011;6746;50.892;4.064;2022-08-11T08:15:21;3.33;;;2.22;;
13353;SDS011;6746;50.892;4.064;2022-08-11T08:18:07;5.12;;;2.67;;
13353;SDS011;6746;50.892;4.064;2022-08-11T08:20:47;5.37;;;2.78;;
13353;SDS011;6746;50.892;4.064;2022-08-11T08:26:03;8.00;;;2.40;;
13353;SDS011;6746;50.892;4.064;2022-08-11T08:28:31;3.75;;;2.35;;
13353;SDS011;6746;50.892;4.064;2022-08-11T08:31:09;3.92;;;2.40;;
13353;SDS011;6746;50.892;4.064;2022-08-11T08:38:48;6.07;;;2.35;;
13353;SDS011;6746;50.892;4.064;2022-08-11T08:41:31;5.57;;;2.35;;
13353;SDS011;6746;50.892;4.064;2022-08-11T08:51:44;2.90;;;2.47;;
13353;SDS011;6746;50.892;4.064;2022-08-11T08:54:16;3.28;;;2.08;;
13353;SDS011;6746;50.892;4.064;2022-08-11T08:56:45;4.47;;;2.60;;
13353;SDS011;6746;50.892;4.064;2022-08-11T08:59:14;3.90;;;2.35;;
13353;SDS011;6746;50.892;4.064;2022-08-11T09:01:59;5.55;;;2.60;;
13353;SDS011;6746;50.892;4.064;2022-08-11T09:04:38;3.87;;;2.27;;
13353;SDS011;6746;50.892;4.064;2022-08-11T09:09:48;6.30;;;2.53;;
13353;SDS011;6746;50.892;4.064;2022-08-11T09:20:22;2.85;;;2.25;;
13353;SDS011;6746;50.892;4.064;2022-08-11T09:25:46;3.40;;;2.30;;
13353;SDS011;6746;50.892;4.064;2022-08-11T09:28:41;2.83;;;1.85;;
13353;SDS011;6746;50.892;4.064;2022-08-11T09:33:53;6.18;;;2.72;;
13353;SDS011;6746;50.892;4.064;2022-08-11T09:39:20;3.72;;;2.03;;
13353;SDS011;6746;50.892;4.064;2022-08-11T09:42:06;4.70;;;2.17;;
13353;SDS011;6746;50.892;4.064;2022-08-11T09:44:45;6.18;;;1.98;;
13353;SDS011;6746;50.892;4.064;2022-08-11T09:52:34;8.32;;;2.37;;
13353;SDS011;6746;50.892;4.064;2022-08-11T09:55:08;3.80;;;2.60;;
13353;SDS011;6746;50.892;4.064;2022-08-11T10:00:36;8.10;;;2.50;;
13353;SDS011;6746;50.892;4.064;2022-08-11T10:09:00;3.25;;;1.98;;
13353;SDS011;6746;50.892;4.064;2022-08-11T10:11:37;4.47;;;2.17;;
13353;SDS011;6746;50.892;4.064;2022-08-11T10:17:05;5.70;;;2.70;;
13353;SDS011;6746;50.892;4.064;2022-08-11T10:25:13;3.28;;;2.10;;
13353;SDS011;6746;50.892;4.064;2022-08-11T10:28:09;2.97;;;2.00;;
13353;SDS011;6746;50.892;4.064;2022-08-11T10:33:53;5.37;;;2.33;;
13353;SDS011;6746;50.892;4.064;2022-08-11T10:36:43;4.60;;;2.83;;
13353;SDS011;6746;50.892;4.064;2022-08-11T10:39:20;5.70;;;2.65;;
13353;SDS011;6746;50.892;4.064;2022-08-11T10:45:04;4.55;;;2.40;;
13353;SDS011;6746;50.892;4.064;2022-08-11T10:47:45;4.78;;;2.40;;
13353;SDS011;6746;50.892;4.064;2022-08-11T10:53:03;3.63;;;2.40;;
13353;SDS011;6746;50.892;4.064;2022-08-11T10:55:59;3.83;;;2.40;;
13353;SDS011;6746;50.892;4.064;2022-08-11T10:58:56;4.55;;;2.40;;
13353;SDS011;6746;50.892;4.064;2022-08-11T11:06:49;4.70;;;2.60;;
13353;SDS011;6746;50.892;4.064;2022-08-11T11:09:55;5.72;;;2.60;;
13353;SDS011;6746;50.892;4.064;2022-08-11T11:12:29;4.97;;;2.20;;
13353;SDS011;6746;50.892;4.064;2022-08-11T11:15:29;6.55;;;2.53;;
13353;SDS011;6746;50.892;4.064;2022-08-11T11:18:19;2.22;;;2.12;;
13353;SDS011;6746;50.892;4.064;2022-08-11T11:32:18;3.17;;;2.30;;
13353;SDS011;6746;50.892;4.064;2022-08-11T11:37:36;3.70;;;2.40;;
13353;SDS011;6746;50.892;4.064;2022-08-11T11:42:38;3.45;;;2.10;;
13353;SDS011;6746;50.892;4.064;2022-08-11T11:47:48;4.87;;;2.30;;
13353;SDS011;6746;50.892;4.064;2022-08-11T11:52:46;3.45;;;2.25;;
13353;SDS011;6746;50.892;4.064;2022-08-11T11:55:15;3.42;;;2.40;;
13353;SDS011;6746;50.892;4.064;2022-08-11T11:57:47;2.97;;;2.03;;
13353;SDS011;6746;50.892;4.064;2022-08-11T12:00:34;9.25;;;2.50;;
13353;SDS011;6746;50.892;4.064;2022-08-11T12:05:40;2.53;;;2.25;;
13353;SDS011;6746;50.892;4.064;2022-08-11T12:08:19;3.83;;;1.80;;
13353;SDS011;6746;50.892;4.064;2022-08-11T12:14:03;2.37;;;2.10;;
13353;SDS011;6746;50.892;4.064;2022-08-11T12:16:42;5.93;;;2.53;;
13353;SDS011;6746;50.892;4.064;2022-08-11T12:24:53;2.25;;;2.00;;
13353;SDS011;6746;50.892;4.064;2022-08-11T12:27:51;5.80;;;2.15;;
13353;SDS011;6746;50.892;4.064;2022-08-11T12:35:34;4.18;;;2.40;;
13353;SDS011;6746;50.892;4.064;2022-08-11T12:38:03;8.70;;;2.60;;
13353;SDS011;6746;50.892;4.064;2022-08-11T12:40:35;2.62;;;2.10;;
13353;SDS011;6746;50.892;4.064;2022-08-11T12:43:23;2.62;;;2.22;;
13353;SDS011;6746;50.892;4.064;2022-08-11T12:49:11;2.58;;;2.37;;
13353;SDS011;6746;50.892;4.064;2022-08-11T12:52:25;2.87;;;2.20;;
13353;SDS011;6746;50.892;4.064;2022-08-11T12:54:45;2.90;;;2.20;;
13353;SDS011;6746;50.892;4.064;2022-08-11T13:00:26;3.85;;;2.50;;
13353;SDS011;6746;50.892;4.064;2022-08-11T13:03:22;3.12;;;2.10;;
13353;SDS011;6746;50.892;4.064;2022-08-11T13:06:18;3.15;;;2.08;;
13353;SDS011;6746;50.892;4.064;2022-08-11T13:14:41;3.95;;;2.50;;
13353;SDS011;6746;50.892;4.064;2022-08-11T13:17:19;3.33;;;2.42;;
13353;SDS011;6746;50.892;4.064;2022-08-11T13:25:15;3.70;;;2.30;;
13353;SDS011;6746;50.892;4.064;2022-08-11T13:27:46;2.60;;;2.20;;
13353;SDS011;6746;50.892;4.064;2022-08-11T13:30:24;4.28;;;2.53;;
13353;SDS011;6746;50.892;4.064;2022-08-11T13:33:20;2.60;;;2.40;;
13353;SDS011;6746;50.892;4.064;2022-08-11T13:41:34;2.70;;;2.20;;
13353;SDS011;6746;50.892;4.064;2022-08-11T13:44:16;2.35;;;2.10;;
13353;SDS011;6746;50.892;4.064;2022-08-11T13:54:58;2.22;;;1.95;;
13353;SDS011;6746;50.892;4.064;2022-08-11T13:57:30;4.73;;;1.90;;
13353;SDS011;6746;50.892;4.064;2022-08-11T14:00:08;4.43;;;1.90;;
13353;SDS011;6746;50.892;4.064;2022-08-11T14:07:48;6.20;;;1.70;;
13353;SDS011;6746;50.892;4.064;2022-08-11T14:10:25;3.30;;;2.05;;
13353;SDS011;6746;50.892;4.064;2022-08-11T14:12:54;2.62;;;2.10;;
13353;SDS011;6746;50.892;4.064;2022-08-11T14:15:40;2.13;;;1.93;;
13353;SDS011;6746;50.892;4.064;2022-08-11T14:18:10;3.08;;;2.00;;
13353;SDS011;6746;50.892;4.064;2022-08-11T14:20:41;3.60;;;1.70;;
13353;SDS011;6746;50.892;4.064;2022-08-11T14:23:27;2.60;;;1.90;;
13353;SDS011;6746;50.892;4.064;2022-08-11T14:28:51;3.00;;;2.20;;
13353;SDS011;6746;50.892;4.064;2022-08-11T14:31:31;5.15;;;1.80;;
13353;SDS011;6746;50.892;4.064;2022-08-11T14:36:38;3.05;;;1.83;;
13353;SDS011;6746;50.892;4.064;2022-08-11T14:39:14;2.35;;;1.60;;
13353;SDS011;6746;50.892;4.064;2022-08-11T14:44:44;4.15;;;1.70;;
13353;SDS011;6746;50.892;4.064;2022-08-11T14:47:33;2.25;;;1.80;;
13353;SDS011;6746;50.892;4.064;2022-08-11T14:50:02;2.20;;;1.87;;
13353;SDS011;6746;50.892;4.064;2022-08-11T14:52:30;2.75;;;1.90;;
13353;SDS011;6746;50.892;4.064;2022-08-11T14:55:02;1.85;;;1.75;;
13353;SDS011;6746;50.892;4.064;2022-08-11T14:57:58;2.78;;;1.98;;
13353;SDS011;6746;50.892;4.064;2022-08-11T15:10:48;2.30;;;1.65;;
13353;SDS011;6746;50.892;4.064;2022-08-11T15:13:26;2.10;;;1.90;;
13353;SDS011;6746;50.892;4.064;2022-08-11T15:19:01;3.22;;;1.67;;
13353;SDS011;6746;50.892;4.064;2022-08-11T15:24:16;3.05;;;1.70;;
13353;SDS011;6746;50.892;4.064;2022-08-11T15:26:57;4.12;;;1.83;;
13353;SDS011;6746;50.892;4.064;2022-08-11T15:29:46;2.55;;;1.92;;
13353;SDS011;6746;50.892;4.064;2022-08-11T15:32:33;3.75;;;1.85;;
13353;SDS011;6746;50.892;4.064;2022-08-11T15:35:29;7.87;;;2.27;;
13353;SDS011;6746;50.892;4.064;2022-08-11T15:38:24;4.25;;;1.98;;
13353;SDS011;6746;50.892;4.064;2022-08-11T15:43:47;2.00;;;1.80;;
13353;SDS011;6746;50.892;4.064;2022-08-11T15:46:38;3.58;;;2.10;;
13353;SDS011;6746;50.892;4.064;2022-08-11T15:51:47;2.10;;;1.90;;
13353;SDS011;6746;50.892;4.064;2022-08-11T15:56:49;7.15;;;2.15;;
13353;SDS011;6746;50.892;4.064;2022-08-11T15:59:22;2.28;;;2.00;;
13353;SDS011;6746;50.892;4.064;2022-08-11T16:02:13;4.65;;;1.98;;
13353;SDS011;6746;50.892;4.064;2022-08-11T16:05:07;2.55;;;1.92;;
13353;SDS011;6746;50.892;4.064;2022-08-11T16:10:14;2.28;;;2.08;;
13353;SDS011;6746;50.892;4.064;2022-08-11T16:15:33;5.43;;;2.20;;
13353;SDS011;6746;50.892;4.064;2022-08-11T16:18:38;2.08;;;1.98;;
13353;SDS011;6746;50.892;4.064;2022-08-11T16:23:42;2.17;;;1.70;;
13353;SDS011;6746;50.892;4.064;2022-08-11T16:26:10;3.03;;;1.80;;
13353;SDS011;6746;50.892;4.064;2022-08-11T16:28:57;4.60;;;2.28;;
13353;SDS011;6746;50.892;4.064;2022-08-11T16:31:35;4.03;;;2.43;;
13353;SDS011;6746;50.892;4.064;2022-08-11T16:39:31;3.15;;;2.10;;
13353;SDS011;6746;50.892;4.064;2022-08-11T16:42:00;3.67;;;2.28;;
13353;SDS011;6746;50.892;4.064;2022-08-11T16:44:52;3.90;;;2.23;;
13353;SDS011;6746;50.892;4.064;2022-08-11T16:49:50;3.87;;;2.22;;
13353;SDS011;6746;50.892;4.064;2022-08-11T16:52:21;2.75;;;2.47;;
13353;SDS011;6746;50.892;4.064;2022-08-11T16:54:51;2.42;;;2.00;;
13353;SDS011;6746;50.892;4.064;2022-08-11T17:00:09;4.35;;;2.30;;
13353;SDS011;6746;50.892;4.064;2022-08-11T17:02:45;2.65;;;2.45;;
13353;SDS011;6746;50.892;4.064;2022-08-11T17:05:38;3.17;;;2.12;;
13353;SDS011;6746;50.892;4.064;2022-08-11T17:08:31;3.78;;;1.95;;
13353;SDS011;6746;50.892;4.064;2022-08-11T17:11:15;3.35;;;2.40;;
13353;SDS011;6746;50.892;4.064;2022-08-11T17:14:09;2.30;;;2.10;;
13353;SDS011;6746;50.892;4.064;2022-08-11T17:19:20;4.75;;;2.08;;
13353;SDS011;6746;50.892;4.064;2022-08-11T17:24:47;3.63;;;2.00;;
13353;SDS011;6746;50.892;4.064;2022-08-11T17:32:39;2.47;;;1.90;;
13353;SDS011;6746;50.892;4.064;2022-08-11T17:35:33;4.65;;;1.87;;
13353;SDS011;6746;50.892;4.064;2022-08-11T17:40:58;3.95;;;2.30;;
13353;SDS011;6746;50.892;4.064;2022-08-11T17:43:53;2.53;;;2.10;;
13353;SDS011;6746;50.892;4.064;2022-08-11T17:46:49;3.05;;;1.77;;
13353;SDS011;6746;50.892;4.064;2022-08-11T17:49:45;4.90;;;2.12;;
13353;SDS011;6746;50.892;4.064;2022-08-11T17:55:20;5.53;;;2.25;;
13353;SDS011;6746;50.892;4.064;2022-08-11T17:58:08;2.87;;;2.12;;
13353;SDS011;6746;50.892;4.064;2022-08-11T18:00:55;2.08;;;1.87;;
13353;SDS011;6746;50.892;4.064;2022-08-11T18:03:32;4.40;;;2.30;;
13353;SDS011;6746;50.892;4.064;2022-08-11T18:08:32;2.90;;;2.60;;
13353;SDS011;6746;50.892;4.064;2022-08-11T18:11:19;4.15;;;2.85;;
13353;SDS011;6746;50.892;4.064;2022-08-11T18:14:09;6.10;;;3.07;;
13353;SDS011;6746;50.892;4.064;2022-08-11T18:16:55;2.87;;;2.53;;
13353;SDS011;6746;50.892;4.064;2022-08-11T18:19:54;3.73;;;2.40;;
13353;SDS011;6746;50.892;4.064;2022-08-11T18:22:51;2.28;;;2.08;;
13353;SDS011;6746;50.892;4.064;2022-08-11T18:25:41;6.53;;;2.35;;
13353;SDS011;6746;50.892;4.064;2022-08-11T18:28:26;7.32;;;2.03;;
13353;SDS011;6746;50.892;4.064;2022-08-11T18:31:16;2.87;;;2.00;;
13353;SDS011;6746;50.892;4.064;2022-08-11T18:34:06;3.30;;;1.75;;
13353;SDS011;6746;50.892;4.064;2022-08-11T18:37:01;2.20;;;1.80;;
13353;SDS011;6746;50.892;4.064;2022-08-11T18:39:59;2.20;;;2.00;;
13353;SDS011;6746;50.892;4.064;2022-08-11T18:42:56;6.37;;;1.90;;
13353;SDS011;6746;50.892;4.064;2022-08-11T18:45:51;3.83;;;2.00;;
13353;SDS011;6746;50.892;4.064;2022-08-11T18:48:58;3.30;;;2.10;;
13353;SDS011;6746;50.892;4.064;2022-08-11T18:51:50;2.90;;;2.10;;
13353;SDS011;6746;50.892;4.064;2022-08-11T18:54:36;3.40;;;2.20;;
13353;SDS011;6746;50.892;4.064;2022-08-11T18:57:27;3.37;;;2.70;;
13353;SDS011;6746;50.892;4.064;2022-08-11T19:00:14;4.82;;;3.03;;
13353;SDS011;6746;50.892;4.064;2022-08-11T19:03:00;3.10;;;2.50;;
13353;SDS011;6746;50.892;4.064;2022-08-11T19:05:47;4.33;;;2.37;;
13353;SDS011;6746;50.892;4.064;2022-08-11T19:08:45;4.97;;;2.50;;
13353;SDS011;6746;50.892;4.064;2022-08-11T19:11:30;6.20;;;2.58;;
13353;SDS011;6746;50.892;4.064;2022-08-11T19:14:17;1.98;;;1.87;;
13353;SDS011;6746;50.892;4.064;2022-08-11T19:17:03;2.87;;;2.20;;
13353;SDS011;6746;50.892;4.064;2022-08-11T19:19:50;3.47;;;2.40;;
13353;SDS011;6746;50.892;4.064;2022-08-11T19:22:36;2.97;;;2.50;;
13353;SDS011;6746;50.892;4.064;2022-08-11T19:25:31;3.80;;;2.53;;
13353;SDS011;6746;50.892;4.064;2022-08-11T19:28:18;2.92;;;2.37;;
13353;SDS011;6746;50.892;4.064;2022-08-11T19:31:14;2.80;;;2.22;;
13353;SDS011;6746;50.892;4.064;2022-08-11T19:34:13;7.55;;;2.45;;
13353;SDS011;6746;50.892;4.064;2022-08-11T19:37:19;4.12;;;2.30;;
13353;SDS011;6746;50.892;4.064;2022-08-11T19:40:16;3.53;;;2.78;;
13353;SDS011;6746;50.892;4.064;2022-08-11T19:43:12;3.37;;;2.78;;
13353;SDS011;6746;50.892;4.064;2022-08-11T19:46:11;3.12;;;2.50;;
13353;SDS011;6746;50.892;4.064;2022-08-11T19:49:08;4.35;;;2.83;;
13353;SDS011;6746;50.892;4.064;2022-08-11T19:52:12;4.22;;;2.60;;
13353;SDS011;6746;50.892;4.064;2022-08-11T19:55:09;10.07;;;2.90;;
13353;SDS011;6746;50.892;4.064;2022-08-11T19:58:16;5.05;;;3.05;;
13353;SDS011;6746;50.892;4.064;2022-08-11T20:01:12;4.10;;;2.70;;
13353;SDS011;6746;50.892;4.064;2022-08-11T20:04:08;6.37;;;2.67;;
13353;SDS011;6746;50.892;4.064;2022-08-11T20:07:14;8.10;;;2.83;;
13353;SDS011;6746;50.892;4.064;2022-08-11T20:10:10;6.22;;;3.03;;
13353;SDS011;6746;50.892;4.064;2022-08-11T20:13:06;5.65;;;2.95;;
13353;SDS011;6746;50.892;4.064;2022-08-11T20:16:11;3.33;;;2.70;;
13353;SDS011;6746;50.892;4.064;2022-08-11T20:19:07;5.03;;;3.03;;
13353;SDS011;6746;50.892;4.064;2022-08-11T20:22:14;3.55;;;2.70;;
13353;SDS011;6746;50.892;4.064;2022-08-11T20:25:12;7.62;;;3.22;;
13353;SDS011;6746;50.892;4.064;2022-08-11T20:28:10;3.35;;;2.83;;
13353;SDS011;6746;50.892;4.064;2022-08-11T20:31:15;6.30;;;2.62;;
13353;SDS011;6746;50.892;4.064;2022-08-11T20:34:21;11.45;;;2.87;;
13353;SDS011;6746;50.892;4.064;2022-08-11T20:37:27;4.60;;;2.80;;
13353;SDS011;6746;50.892;4.064;2022-08-11T20:40:33;3.22;;;2.97;;
13353;SDS011;6746;50.892;4.064;2022-08-11T20:43:39;10.30;;;2.75;;
13353;SDS011;6746;50.892;4.064;2022-08-11T20:46:41;6.03;;;2.75;;
13353;SDS011;6746;50.892;4.064;2022-08-11T20:49:37;3.80;;;2.87;;
13353;SDS011;6746;50.892;4.064;2022-08-11T20:52:33;8.80;;;3.03;;
13353;SDS011;6746;50.892;4.064;2022-08-11T20:55:29;4.37;;;3.28;;
13353;SDS011;6746;50.892;4.064;2022-08-11T20:58:35;3.20;;;2.92;;
13353;SDS011;6746;50.892;4.064;2022-08-11T21:01:32;5.78;;;2.87;;
13353;SDS011;6746;50.892;4.064;2022-08-11T21:04:28;4.47;;;2.67;;
13353;SDS011;6746;50.892;4.064;2022-08-11T21:07:34;3.97;;;2.65;;
13353;SDS011;6746;50.892;4.064;2022-08-11T21:10:30;5.70;;;3.00;;
13353;SDS011;6746;50.892;4.064;2022-08-11T21:13:26;4.85;;;3.17;;
13353;SDS011;6746;50.892;4.064;2022-08-11T21:16:43;4.65;;;3.05;;
13353;SDS011;6746;50.892;4.064;2022-08-11T21:19:30;4.65;;;2.78;;
13353;SDS011;6746;50.892;4.064;2022-08-11T21:22:35;5.82;;;3.05;;
13353;SDS011;6746;50.892;4.064;2022-08-11T21:25:45;3.00;;;2.80;;
13353;SDS011;6746;50.892;4.064;2022-08-11T21:28:50;4.55;;;3.03;;
13353;SDS011;6746;50.892;4.064;2022-08-11T21:31:51;6.53;;;3.00;;
13353;SDS011;6746;50.892;4.064;2022-08-11T21:34:47;5.53;;;3.12;;
13353;SDS011;6746;50.892;4.064;2022-08-11T21:37:46;7.05;;;3.60;;
13353;SDS011;6746;50.892;4.064;2022-08-11T21:40:43;6.43;;;2.78;;
13353;SDS011;6746;50.892;4.064;2022-08-11T21:43:42;8.45;;;3.17;;
13353;SDS011;6746;50.892;4.064;2022-08-11T21:46:38;4.32;;;2.90;;
13353;SDS011;6746;50.892;4.064;2022-08-11T21:49:44;3.50;;;2.83;;
13353;SDS011;6746;50.892;4.064;2022-08-11T21:52:46;3.95;;;3.05;;
13353;SDS011;6746;50.892;4.064;2022-08-11T21:55:42;4.87;;;3.03;;
13353;SDS011;6746;50.892;4.064;2022-08-11T21:58:48;3.25;;;2.83;;
13353;SDS011;6746;50.892;4.064;2022-08-11T22:01:45;9.15;;;2.80;;
13353;SDS011;6746;50.892;4.064;2022-08-11T22:04:41;3.33;;;2.62;;
13353;SDS011;6746;50.892;4.064;2022-08-11T22:07:38;3.60;;;3.30;;
13353;SDS011;6746;50.892;4.064;2022-08-11T22:10:35;3.25;;;2.95;;
13353;SDS011;6746;50.892;4.064;2022-08-11T22:13:39;4.18;;;3.08;;
13353;SDS011;6746;50.892;4.064;2022-08-11T22:16:35;6.47;;;3.10;;
13353;SDS011;6746;50.892;4.064;2022-08-11T22:19:35;8.07;;;3.22;;
13353;SDS011;6746;50.892;4.064;2022-08-11T22:22:31;7.60;;;3.50;;
13353;SDS011;6746;50.892;4.064;2022-08-11T22:25:30;4.95;;;3.50;;
13353;SDS011;6746;50.892;4.064;2022-08-11T22:28:27;4.40;;;3.00;;
13353;SDS011;6746;50.892;4.064;2022-08-11T22:31:30;5.53;;;3.17;;
13353;SDS011;6746;50.892;4.064;2022-08-11T22:34:27;4.43;;;3.10;;
13353;SDS011;6746;50.892;4.064;2022-08-11T22:37:33;7.93;;;3.20;;
13353;SDS011;6746;50.892;4.064;2022-08-11T22:40:34;4.95;;;3.15;;
13353;SDS011;6746;50.892;4.064;2022-08-11T22:43:31;6.32;;;3.30;;
13353;SDS011;6746;50.892;4.064;2022-08-11T22:46:37;4.78;;;3.28;;
13353;SDS011;6746;50.892;4.064;2022-08-11T22:49:33;2.67;;;2.22;;
13353;SDS011;6746;50.892;4.064;2022-08-11T22:52:30;5.53;;;3.55;;
13353;SDS011;6746;50.892;4.064;2022-08-11T22:55:36;3.15;;;2.60;;
13353;SDS011;6746;50.892;4.064;2022-08-11T22:58:33;4.28;;;2.67;;
13353;SDS011;6746;50.892;4.064;2022-08-11T23:01:29;3.50;;;3.08;;
13353;SDS011;6746;50.892;4.064;2022-08-11T23:04:35;6.62;;;3.28;;
13353;SDS011;6746;50.892;4.064;2022-08-11T23:07:34;5.65;;;3.00;;
13353;SDS011;6746;50.892;4.064;2022-08-11T23:10:31;3.17;;;2.85;;
13353;SDS011;6746;50.892;4.064;2022-08-11T23:13:28;4.60;;;2.95;;
13353;SDS011;6746;50.892;4.064;2022-08-11T23:16:23;3.67;;;2.78;;
13353;SDS011;6746;50.892;4.064;2022-08-11T23:19:29;3.78;;;2.50;;
13353;SDS011;6746;50.892;4.064;2022-08-11T23:22:26;4.37;;;2.62;;
13353;SDS011;6746;50.892;4.064;2022-08-11T23:25:22;5.47;;;3.10;;
13353;SDS011;6746;50.892;4.064;2022-08-11T23:28:28;3.45;;;2.72;;
13353;SDS011;6746;50.892;4.064;2022-08-11T23:31:29;3.92;;;2.78;;
13353;SDS011;6746;50.892;4.064;2022-08-11T23:34:29;3.28;;;2.95;;
13353;SDS011;6746;50.892;4.064;2022-08-11T23:37:34;3.47;;;3.17;;
13353;SDS011;6746;50.892;4.064;2022-08-11T23:40:40;3.20;;;2.85;;
13353;SDS011;6746;50.892;4.064;2022-08-11T23:43:46;3.20;;;2.90;;
13353;SDS011;6746;50.892;4.064;2022-08-11T23:46:55;4.37;;;2.60;;
13353;SDS011;6746;50.892;4.064;2022-08-11T23:50:01;5.55;;;3.10;;
13353;SDS011;6746;50.892;4.064;2022-08-11T23:53:07;6.95;;;3.08;;
13353;SDS011;6746;50.892;4.064;2022-08-11T23:56:13;3.72;;;3.40;;
13353;SDS011;6746;50.892;4.064;2022-08-11T23:59:15;4.15;;;3.53;;
